Time;durP1;ratioP1;P1;durP2;ratioP2;P2;SDS_P1;SDS_P2;PMS_P1;PMS_P2;Temp;Humidity;BMP_temperature;BMP_pressure;BME280_temperature;BME280_humidity;BME280_pressure;Samples;Min_cycle;Max_cycle;Signal;HPM_P1;HPM_P2
2023/02/18 00:01:19;;;;;;;2.55;0.60;;;10.30;99.90;;;;;;6220186;23;20024;-91
2023/02/18 00:03:46;;;;;;;1.67;0.85;;;10.30;99.90;;;;;;6217463;23;20035;-95
2023/02/18 00:06:24;;;;;;;0.75;0.75;;;10.30;99.90;;;;;;6215965;23;20388;-94
2023/02/18 00:08:51;;;;;;;0.98;0.90;;;10.30;99.90;;;;;;6216060;23;20040;-91
2023/02/18 00:11:21;;;;;;;1.27;1.13;;;10.30;99.90;;;;;;6215467;23;20080;-92
2023/02/18 00:13:52;;;;;;;0.80;0.80;;;10.30;99.90;;;;;;6215537;23;20009;-92
2023/02/18 00:16:21;;;;;;;1.88;0.88;;;10.30;99.90;;;;;;6215486;23;20005;-94
2023/02/18 00:18:47;;;;;;;1.55;1.05;;;10.30;99.90;;;;;;6215445;23;20015;-94
2023/02/18 00:21:14;;;;;;;1.90;1.40;;;10.30;99.90;;;;;;6215729;23;20091;-94
2023/02/18 00:23:39;;;;;;;2.60;1.65;;;10.30;99.90;;;;;;6215468;23;20087;-93
2023/02/18 00:26:08;;;;;;;1.73;1.42;;;10.30;99.90;;;;;;6215513;23;20009;-94
2023/02/18 00:28:34;;;;;;;1.23;1.13;;;10.30;99.90;;;;;;6215288;23;20460;-94
2023/02/18 00:31:09;;;;;;;1.38;1.00;;;10.30;99.90;;;;;;6215281;23;20011;-94
2023/02/18 00:33:35;;;;;;;1.80;0.98;;;10.30;99.90;;;;;;6216983;23;20004;-94
2023/02/18 00:36:06;;;;;;;0.88;0.82;;;10.30;99.90;;;;;;6219185;23;20012;-94
2023/02/18 00:38:32;;;;;;;1.27;0.80;;;10.30;99.90;;;;;;6218419;23;20007;-95
2023/02/18 00:40:58;;;;;;;0.70;0.70;;;10.30;99.90;;;;;;6216494;23;20039;-93
2023/02/18 00:43:23;;;;;;;1.27;0.65;;;10.30;99.90;;;;;;6215720;23;20007;-94
2023/02/18 00:45:49;;;;;;;1.85;0.70;;;10.30;99.90;;;;;;6215143;23;20010;-94
2023/02/18 00:48:15;;;;;;;1.55;0.80;;;10.30;99.90;;;;;;6215179;23;20036;-93
2023/02/18 00:50:41;;;;;;;2.10;0.73;;;10.30;99.90;;;;;;6215325;23;19997;-94
2023/02/18 00:53:06;;;;;;;1.70;0.85;;;10.30;99.90;;;;;;6214961;23;20013;-94
2023/02/18 00:55:32;;;;;;;1.73;1.20;;;10.30;99.90;;;;;;6215502;23;20008;-94
2023/02/18 00:57:58;;;;;;;1.73;0.70;;;10.30;99.90;;;;;;6215430;23;20016;-94
2023/02/18 01:00:24;;;;;;;4.20;0.75;;;10.30;99.90;;;;;;6215203;23;20040;-92
2023/02/18 01:02:52;;;;;;;3.00;0.73;;;10.30;99.90;;;;;;6215910;23;20027;-92
2023/02/18 01:05:19;;;;;;;3.42;0.73;;;10.30;99.90;;;;;;6215669;23;20012;-93
2023/02/18 01:07:45;;;;;;;2.60;0.57;;;10.30;99.90;;;;;;6214933;23;20059;-95
2023/02/18 01:10:11;;;;;;;3.72;0.50;;;10.30;99.90;;;;;;6190698;23;20012;-93
2023/02/18 01:12:37;;;;;;;2.13;0.50;;;10.30;99.90;;;;;;6190595;23;20391;-94
2023/02/18 01:15:05;;;;;;;4.63;0.63;;;10.40;99.90;;;;;;6191018;23;20486;-95
2023/02/18 01:17:30;;;;;;;2.67;0.55;;;10.40;99.90;;;;;;6191519;23;20443;-95
2023/02/18 01:19:56;;;;;;;4.30;0.65;;;10.50;99.90;;;;;;6191514;23;20008;-93
2023/02/18 01:22:22;;;;;;;3.08;0.73;;;10.50;99.90;;;;;;6190939;23;20005;-93
2023/02/18 01:24:48;;;;;;;5.13;1.00;;;10.40;99.90;;;;;;6191187;23;20146;-92
2023/02/18 01:27:14;;;;;;;4.93;0.68;;;10.40;99.90;;;;;;6190804;23;20088;-94
2023/02/18 01:29:39;;;;;;;3.30;0.70;;;10.40;99.90;;;;;;6190251;23;20332;-93
2023/02/18 01:32:05;;;;;;;1.92;0.68;;;10.40;99.90;;;;;;6190293;23;20015;-95
2023/02/18 01:34:31;;;;;;;4.13;1.33;;;10.40;99.90;;;;;;6189709;23;20012;-94
2023/02/18 01:36:56;;;;;;;4.30;0.70;;;10.40;99.90;;;;;;6189916;23;20009;-95
2023/02/18 01:39:22;;;;;;;3.17;0.68;;;10.40;99.90;;;;;;6189818;23;20059;-94
2023/02/18 01:41:48;;;;;;;3.05;0.82;;;10.30;99.90;;;;;;6189285;23;20012;-94
2023/02/18 01:44:20;;;;;;;6.35;1.05;;;10.30;99.90;;;;;;6189544;23;20386;-94
2023/02/18 01:46:46;;;;;;;4.95;1.00;;;10.30;99.90;;;;;;6189563;23;20009;-94
2023/02/18 01:49:24;;;;;;;7.00;0.98;;;10.20;99.90;;;;;;6189736;23;20454;-94
2023/02/18 01:52:01;;;;;;;4.95;0.95;;;10.20;99.90;;;;;;6189384;23;20001;-93
2023/02/18 01:54:33;;;;;;;4.93;0.70;;;10.20;99.90;;;;;;6189584;23;20008;-93
2023/02/18 01:57:07;;;;;;;4.15;0.90;;;10.20;99.90;;;;;;6190085;23;20036;-93
2023/02/18 01:59:37;;;;;;;10.20;1.00;;;10.20;99.90;;;;;;6191893;23;20019;-94
2023/02/18 02:02:06;;;;;;;9.15;1.75;;;10.10;99.90;;;;;;6190046;23;20032;-93
2023/02/18 02:04:32;;;;;;;8.57;1.35;;;10.10;99.90;;;;;;6194901;23;20000;-91
2023/02/18 02:06:58;;;;;;;4.05;1.00;;;10.10;99.90;;;;;;6223830;23;20015;-92
2023/02/18 02:09:27;;;;;;;5.15;0.90;;;10.00;99.90;;;;;;6210188;23;20048;-92
2023/02/18 02:12:10;;;;;;;6.50;1.00;;;10.00;99.90;;;;;;6216456;23;20096;-91
2023/02/18 02:15:32;;;;;;;2.58;0.40;;;10.00;99.90;;;;;;6216591;23;20005;-92
2023/02/18 02:18:16;;;;;;;2.78;0.70;;;10.00;99.90;;;;;;6072128;23;20010;-93
2023/02/18 02:21:37;;;;;;;2.92;0.90;;;10.00;99.90;;;;;;6072500;23;20046;-92
2023/02/18 02:24:17;;;;;;;4.03;0.57;;;9.90;99.90;;;;;;6015828;23;20035;-94
2023/02/18 02:26:52;;;;;;;4.47;0.85;;;9.90;99.90;;;;;;6015622;23;20018;-92
2023/02/18 02:29:53;;;;;;;2.97;1.02;;;9.90;99.90;;;;;;6015354;23;20335;-93
2023/02/18 02:32:37;;;;;;;;;;;9.90;99.90;;;;;;6015815;23;20003;-92
2023/02/18 02:35:06;;;;;;;4.45;0.75;;;9.90;99.90;;;;;;6015506;23;19906;-92
2023/02/18 02:38:03;;;;;;;3.58;0.80;;;9.90;99.90;;;;;;6015222;23;20023;-90
2023/02/18 02:40:45;;;;;;;2.17;0.73;;;9.80;99.90;;;;;;6015207;23;20098;-92
2023/02/18 02:43:28;;;;;;;6.05;1.10;;;9.90;99.90;;;;;;6015397;23;20039;-93
2023/02/18 02:46:07;;;;;;;3.60;1.42;;;9.80;99.90;;;;;;6015467;23;20682;-92
2023/02/18 02:48:47;;;;;;;3.85;1.25;;;9.80;99.90;;;;;;6052143;23;20003;-93
2023/02/18 02:51:28;;;;;;;8.73;1.63;;;9.70;99.90;;;;;;6081519;23;20053;-92
2023/02/18 02:53:54;;;;;;;6.97;1.38;;;9.70;99.90;;;;;;6088082;23;20090;-92
2023/02/18 02:56:24;;;;;;;12.40;1.70;;;9.70;99.90;;;;;;6215784;23;20340;-92
2023/02/18 02:59:03;;;;;;;7.13;1.30;;;9.70;99.90;;;;;;6216021;23;20012;-92
2023/02/18 03:02:10;;;;;;;13.85;1.70;;;9.70;99.90;;;;;;6216258;23;20027;-94
2023/02/18 03:04:56;;;;;;;8.63;1.70;;;9.60;99.90;;;;;;6215180;23;20478;-92
2023/02/18 03:07:34;;;;;;;14.63;1.98;;;9.60;99.90;;;;;;6215695;23;20010;-93
2023/02/18 03:10:25;;;;;;;14.90;2.67;;;9.60;99.90;;;;;;6215757;23;20017;-92
2023/02/18 03:13:05;;;;;;;11.65;2.20;;;9.60;99.90;;;;;;6216210;23;20005;-94
2023/02/18 03:15:58;;;;;;;9.60;1.10;;;9.50;99.90;;;;;;6215596;23;20095;-93
2023/02/18 03:18:37;;;;;;;11.98;2.17;;;9.50;99.90;;;;;;6215640;23;20482;-92
2023/02/18 03:21:19;;;;;;;12.55;1.98;;;9.60;99.90;;;;;;6215780;23;20005;-91
2023/02/18 03:24:15;;;;;;;12.32;2.15;;;9.60;99.90;;;;;;6215494;23;20018;-91
2023/02/18 03:26:48;;;;;;;8.73;1.55;;;9.50;99.90;;;;;;6215977;23;20005;-90
2023/02/18 03:29:17;;;;;;;8.35;1.00;;;9.50;99.90;;;;;;6215752;23;20352;-90
2023/02/18 03:31:46;;;;;;;19.38;2.38;;;9.50;99.90;;;;;;6215973;23;20403;-88
2023/02/18 03:34:18;;;;;;;15.25;2.25;;;9.50;99.90;;;;;;6215998;23;20000;-91
2023/02/18 03:36:44;;;;;;;13.50;2.03;;;9.50;99.90;;;;;;6215223;23;20493;-92
2023/02/18 03:39:15;;;;;;;11.32;1.95;;;9.50;99.90;;;;;;6215606;23;20103;-89
2023/02/18 03:41:42;;;;;;;6.22;1.00;;;9.50;99.90;;;;;;6215628;23;20019;-89
2023/02/18 03:44:09;;;;;;;11.32;1.55;;;9.50;99.90;;;;;;6215357;23;20001;-90
2023/02/18 03:46:37;;;;;;;6.78;1.13;;;9.40;99.90;;;;;;6215145;23;20008;-90
2023/02/18 03:49:03;;;;;;;12.20;1.63;;;9.40;99.90;;;;;;6215132;23;20005;-92
2023/02/18 03:51:29;;;;;;;9.02;1.58;;;9.40;99.90;;;;;;6215518;23;20009;-92
2023/02/18 03:53:54;;;;;;;10.57;1.50;;;9.40;99.90;;;;;;6215922;23;20027;-92
2023/02/18 03:56:20;;;;;;;8.70;1.23;;;9.40;99.90;;;;;;6215734;23;20088;-90
2023/02/18 03:58:46;;;;;;;11.10;1.58;;;9.40;99.90;;;;;;6215560;23;20016;-91
2023/02/18 04:01:12;;;;;;;11.02;1.00;;;9.30;99.90;;;;;;6215363;23;20000;-91
2023/02/18 04:03:37;;;;;;;5.95;1.20;;;9.30;99.90;;;;;;6215097;23;20013;-91
2023/02/18 04:06:03;;;;;;;6.20;1.02;;;9.30;99.90;;;;;;6215371;23;20008;-90
2023/02/18 04:08:29;;;;;;;8.18;1.20;;;9.30;99.90;;;;;;6214991;23;20019;-91
2023/02/18 04:10:55;;;;;;;6.28;0.55;;;9.30;99.90;;;;;;6215361;23;20024;-91
2023/02/18 04:13:21;;;;;;;3.63;0.50;;;9.30;99.90;;;;;;6214758;23;20004;-91
2023/02/18 04:15:49;;;;;;;3.25;0.88;;;9.30;99.90;;;;;;6215070;23;20068;-91
2023/02/18 04:18:15;;;;;;;2.88;0.85;;;9.30;99.90;;;;;;6214888;23;20024;-90
2023/02/18 04:20:40;;;;;;;5.43;0.63;;;9.30;99.90;;;;;;6214628;23;20009;-90
2023/02/18 04:23:06;;;;;;;5.00;0.73;;;9.30;99.90;;;;;;6220591;23;20000;-91
2023/02/18 04:25:32;;;;;;;4.22;0.70;;;9.30;99.90;;;;;;6215135;23;20368;-90
2023/02/18 04:27:58;;;;;;;6.05;0.70;;;9.30;99.90;;;;;;6214988;23;20064;-91
2023/02/18 04:30:24;;;;;;;4.05;0.65;;;9.30;99.90;;;;;;6215036;23;20005;-92
2023/02/18 04:32:50;;;;;;;6.68;0.77;;;9.40;99.90;;;;;;6214941;23;20005;-91
2023/02/18 04:35:16;;;;;;;5.15;0.70;;;9.40;99.90;;;;;;6214821;23;20305;-91
2023/02/18 04:37:42;;;;;;;4.20;0.70;;;9.40;99.90;;;;;;6214728;23;19997;-91
2023/02/18 04:40:08;;;;;;;3.53;0.80;;;9.40;99.90;;;;;;6214916;23;20044;-92
2023/02/18 04:42:34;;;;;;;2.13;0.38;;;9.40;99.90;;;;;;6214808;23;20001;-93
2023/02/18 04:44:59;;;;;;;5.78;1.02;;;9.40;99.90;;;;;;6216661;23;20095;-91
2023/02/18 04:47:25;;;;;;;4.80;0.85;;;9.40;99.90;;;;;;6220970;23;20290;-90
2023/02/18 04:49:51;;;;;;;6.97;1.33;;;9.50;99.90;;;;;;6215496;23;20492;-90
2023/02/18 04:52:17;;;;;;;4.50;1.52;;;9.50;99.90;;;;;;6214972;23;20427;-89
2023/02/18 04:54:43;;;;;;;6.72;1.50;;;9.50;99.90;;;;;;6214850;23;20459;-90
2023/02/18 04:57:09;;;;;;;4.72;1.40;;;9.50;99.90;;;;;;6214781;23;20361;-92
2023/02/18 04:59:34;;;;;;;2.05;0.70;;;9.50;99.90;;;;;;6214614;23;20012;-93
2023/02/18 05:02:00;;;;;;;4.22;0.85;;;9.50;99.90;;;;;;6214844;23;20339;-92
2023/02/18 05:04:26;;;;;;;1.73;0.60;;;9.50;99.90;;;;;;6214710;23;20436;-91
2023/02/18 05:06:51;;;;;;;1.02;0.68;;;9.60;99.90;;;;;;6214752;23;19997;-92
2023/02/18 05:09:17;;;;;;;2.92;0.75;;;9.60;99.90;;;;;;6214580;23;20017;-93
2023/02/18 05:11:43;;;;;;;4.50;0.95;;;9.60;99.90;;;;;;6214422;23;20024;-91
2023/02/18 05:14:09;;;;;;;1.30;0.70;;;9.60;99.90;;;;;;6214916;23;20023;-92
2023/02/18 05:16:34;;;;;;;3.35;1.00;;;9.60;99.90;;;;;;6214536;23;20008;-91
2023/02/18 05:19:00;;;;;;;1.67;1.20;;;9.60;99.90;;;;;;6214538;23;20090;-93
2023/02/18 05:21:26;;;;;;;4.22;1.30;;;9.70;99.90;;;;;;6214646;23;20007;-92
2023/02/18 05:23:51;;;;;;;4.38;2.22;;;9.70;99.90;;;;;;6214785;23;20001;-92
2023/02/18 05:26:17;;;;;;;3.20;0.98;;;9.70;99.90;;;;;;6214730;23;19997;-91
2023/02/18 05:28:43;;;;;;;4.20;0.82;;;9.70;99.90;;;;;;6214559;23;20011;-92
2023/02/18 05:31:08;;;;;;;6.68;1.50;;;9.70;99.90;;;;;;6215707;23;20012;-93
2023/02/18 05:33:34;;;;;;;2.65;1.13;;;9.70;99.90;;;;;;6225954;23;20024;-94
2023/02/18 05:36:00;;;;;;;5.70;1.38;;;9.70;99.90;;;;;;6217464;23;20108;-93
2023/02/18 05:38:26;;;;;;;3.42;1.30;;;9.70;99.90;;;;;;6219807;23;20012;-93
2023/02/18 05:40:51;;;;;;;3.55;1.50;;;9.70;99.90;;;;;;6230543;23;20012;-91
2023/02/18 05:43:17;;;;;;;6.97;2.38;;;9.80;99.90;;;;;;6222327;23;20062;-92
2023/02/18 05:45:43;;;;;;;3.75;1.40;;;9.80;99.90;;;;;;6216654;23;20009;-91
2023/02/18 05:48:08;;;;;;;1.80;1.20;;;9.80;99.90;;;;;;6217254;23;20310;-93
2023/02/18 05:50:34;;;;;;;3.65;1.50;;;9.80;99.90;;;;;;6217057;23;20001;-92
2023/02/18 05:53:00;;;;;;;5.35;1.65;;;9.80;99.90;;;;;;6217055;23;20072;-92
2023/02/18 05:55:26;;;;;;;3.92;1.08;;;9.80;99.90;;;;;;6216446;23;20028;-92
2023/02/18 05:57:54;;;;;;;4.35;1.35;;;9.80;99.90;;;;;;6216509;23;20015;-92
2023/02/18 06:00:20;;;;;;;7.47;1.40;;;9.90;99.90;;;;;;6216483;23;20016;-91
2023/02/18 06:02:46;;;;;;;3.30;1.40;;;9.90;99.90;;;;;;6216537;23;20096;-91
2023/02/18 06:05:11;;;;;;;3.33;1.25;;;9.90;99.90;;;;;;6216617;23;20004;-92
2023/02/18 06:07:37;;;;;;;3.58;1.15;;;9.90;99.90;;;;;;6217144;23;20004;-93
2023/02/18 06:10:04;;;;;;;2.35;1.08;;;10.00;99.90;;;;;;6216150;23;20063;-92
2023/02/18 06:12:29;;;;;;;2.85;0.95;;;10.00;99.90;;;;;;6216494;23;20008;-91
2023/02/18 06:14:55;;;;;;;3.17;0.88;;;10.00;99.90;;;;;;6216105;23;20082;-93
2023/02/18 06:17:21;;;;;;;0.45;0.45;;;10.10;99.90;;;;;;6216761;23;20004;-90
2023/02/18 06:19:48;;;;;;;3.92;0.90;;;10.10;99.90;;;;;;6216642;23;20044;-90
2023/02/18 06:22:14;;;;;;;1.42;1.08;;;10.10;99.90;;;;;;6216656;23;20000;-93
2023/02/18 06:24:40;;;;;;;0.75;0.63;;;10.10;99.90;;;;;;6216367;23;20452;-91
2023/02/18 06:27:05;;;;;;;2.05;0.77;;;10.10;99.90;;;;;;6216756;23;20011;-92
2023/02/18 06:29:31;;;;;;;1.35;0.75;;;10.10;99.90;;;;;;6216537;23;20005;-91
2023/02/18 06:31:58;;;;;;;3.10;1.20;;;10.10;99.90;;;;;;6216765;23;20005;-91
2023/02/18 06:34:24;;;;;;;1.48;1.08;;;10.00;99.90;;;;;;6216649;23;20008;-91
2023/02/18 06:36:50;;;;;;;2.65;1.17;;;10.00;99.90;;;;;;6216356;23;20004;-91
2023/02/18 06:39:16;;;;;;;3.30;0.80;;;10.10;99.90;;;;;;6215943;23;20020;-93
2023/02/18 06:41:41;;;;;;;4.15;1.10;;;10.00;99.90;;;;;;6216186;23;20027;-92
2023/02/18 06:44:07;;;;;;;3.75;1.00;;;10.00;99.90;;;;;;6216027;23;20420;-91
2023/02/18 06:46:33;;;;;;;4.15;1.40;;;10.00;99.90;;;;;;6216218;23;20397;-90
2023/02/18 06:49:00;;;;;;;1.33;0.50;;;10.00;99.90;;;;;;6216178;23;20004;-92
2023/02/18 06:51:28;;;;;;;3.30;1.27;;;10.00;99.90;;;;;;6216467;23;20071;-94
2023/02/18 06:53:54;;;;;;;1.27;0.55;;;9.90;99.90;;;;;;6216531;23;20001;-93
2023/02/18 06:56:19;;;;;;;1.08;0.50;;;9.90;99.90;;;;;;6216491;23;20000;-94
2023/02/18 06:58:45;;;;;;;2.45;0.70;;;9.90;99.90;;;;;;6216084;23;20104;-92
2023/02/18 07:01:10;;;;;;;8.02;1.17;;;9.90;99.90;;;;;;6216398;23;20424;-92
2023/02/18 07:03:36;;;;;;;6.88;1.40;;;9.90;99.90;;;;;;6216663;23;19997;-93
2023/02/18 07:06:02;;;;;;;4.10;1.23;;;9.90;99.90;;;;;;6216082;23;20005;-92
2023/02/18 07:08:29;;;;;;;4.68;1.13;;;9.90;99.90;;;;;;6215640;23;20009;-92
2023/02/18 07:10:55;;;;;;;11.75;1.20;;;9.80;99.90;;;;;;6216031;23;20004;-93
2023/02/18 07:13:21;;;;;;;5.85;1.30;;;9.80;99.90;;;;;;6216011;23;20012;-93
2023/02/18 07:15:46;;;;;;;2.60;0.73;;;9.80;99.90;;;;;;6215878;23;19996;-92
2023/02/18 07:18:12;;;;;;;6.40;1.17;;;9.80;99.90;;;;;;6215527;23;20020;-93
2023/02/18 07:20:38;;;;;;;7.53;1.17;;;9.70;99.90;;;;;;6215004;23;20024;-93
2023/02/18 07:23:03;;;;;;;6.07;1.25;;;9.70;99.90;;;;;;6214292;23;20005;-92
2023/02/18 07:25:30;;;;;;;6.78;1.20;;;9.70;99.90;;;;;;6215243;23;20040;-93
2023/02/18 07:27:56;;;;;;;3.92;1.30;;;9.70;99.90;;;;;;6216366;23;20015;-93
2023/02/18 07:30:21;;;;;;;3.92;1.23;;;9.70;99.90;;;;;;6216424;23;20313;-93
2023/02/18 07:32:47;;;;;;;10.23;1.85;;;9.70;99.90;;;;;;6214473;23;20012;-93
2023/02/18 07:35:14;;;;;;;6.82;0.88;;;9.70;99.90;;;;;;6214301;23;20286;-91
2023/02/18 07:37:46;;;;;;;7.65;1.15;;;9.70;99.90;;;;;;6214553;23;20005;-93
2023/02/18 07:40:15;;;;;;;11.15;2.05;;;9.60;99.90;;;;;;6214555;23;20012;-92
2023/02/18 07:42:41;;;;;;;10.48;1.60;;;9.60;99.90;;;;;;6215123;23;20000;-94
2023/02/18 07:45:07;;;;;;;6.00;1.23;;;9.60;99.90;;;;;;6214555;23;20005;-93
2023/02/18 07:47:33;;;;;;;4.38;1.00;;;9.60;99.90;;;;;;6216515;23;20079;-92
2023/02/18 07:49:58;;;;;;;10.88;2.03;;;9.60;99.90;;;;;;6216435;23;20082;-93
2023/02/18 07:52:24;;;;;;;5.57;0.98;;;9.60;99.90;;;;;;6216551;23;20005;-91
2023/02/18 07:54:52;;;;;;;6.00;1.98;;;9.60;99.90;;;;;;6219505;23;20087;-94
2023/02/18 07:57:18;;;;;;;6.65;1.08;;;9.60;99.90;;;;;;6220768;23;20055;-92
2023/02/18 07:59:43;;;;;;;8.98;1.45;;;9.60;99.90;;;;;;6220298;23;20016;-93
2023/02/18 08:02:28;;;;;;;11.93;1.33;;;9.60;99.90;;;;;;6220748;23;20001;-92
2023/02/18 08:04:54;;;;;;;10.23;1.25;;;9.60;99.90;;;;;;6221554;23;20013;-93
2023/02/18 08:07:21;;;;;;;6.90;1.40;;;9.60;99.90;;;;;;6214524;23;20019;-94
2023/02/18 08:09:49;;;;;;;3.63;0.95;;;9.60;99.90;;;;;;6214342;23;20027;-94
2023/02/18 08:12:15;;;;;;;6.97;1.85;;;9.60;99.90;;;;;;6214274;23;20027;-92
2023/02/18 08:14:41;;;;;;;10.45;2.15;;;9.60;99.90;;;;;;6214598;23;20432;-93
2023/02/18 08:17:06;;;;;;;8.27;1.25;;;9.60;99.90;;;;;;6214668;23;20027;-92
2023/02/18 08:19:32;;;;;;;7.85;1.42;;;9.60;99.90;;;;;;6214368;23;20444;-92
2023/02/18 08:22:00;;;;;;;8.00;1.80;;;9.60;99.90;;;;;;6214662;23;20062;-93
2023/02/18 08:24:26;;;;;;;13.15;1.20;;;9.70;99.90;;;;;;6214825;23;20004;-92
2023/02/18 08:26:52;;;;;;;5.03;1.30;;;9.70;99.90;;;;;;6217248;23;20043;-92
2023/02/18 08:29:17;;;;;;;5.40;1.42;;;9.70;99.90;;;;;;6232815;23;20008;-92
2023/02/18 08:31:43;;;;;;;15.32;2.05;;;9.70;99.90;;;;;;6225943;23;20411;-93
2023/02/18 08:34:09;;;;;;;6.57;1.55;;;9.70;99.90;;;;;;6215631;23;20013;-92
2023/02/18 08:36:35;;;;;;;15.35;1.75;;;9.70;99.90;;;;;;6215645;23;20008;-92
2023/02/18 08:39:01;;;;;;;5.80;1.85;;;9.80;99.90;;;;;;6215472;23;20008;-92
2023/02/18 08:41:27;;;;;;;11.38;1.60;;;9.80;99.90;;;;;;6215287;23;20005;-92
2023/02/18 08:43:52;;;;;;;8.52;2.22;;;9.80;99.90;;;;;;6215811;23;20008;-92
2023/02/18 08:46:18;;;;;;;11.88;2.05;;;9.80;99.90;;;;;;6215044;23;20004;-93
2023/02/18 08:48:44;;;;;;;7.25;1.60;;;9.90;99.90;;;;;;6213902;23;20451;-93
2023/02/18 08:51:20;;;;;;;8.13;1.27;;;9.90;99.90;;;;;;6214269;23;20004;-93
2023/02/18 08:53:46;;;;;;;11.45;1.70;;;10.00;99.90;;;;;;6214303;23;20016;-93
2023/02/18 08:56:13;;;;;;;16.33;2.33;;;10.00;99.90;;;;;;6214101;23;20004;-93
2023/02/18 08:58:40;;;;;;;7.50;1.48;;;10.00;99.90;;;;;;6213969;23;20017;-93
2023/02/18 09:01:08;;;;;;;7.60;1.13;;;10.00;99.90;;;;;;6214428;23;20011;-93
2023/02/18 09:03:34;;;;;;;10.18;1.45;;;10.10;99.90;;;;;;6213906;23;20091;-92
2023/02/18 09:06:00;;;;;;;9.73;1.98;;;10.10;99.90;;;;;;6214139;23;20004;-92
2023/02/18 09:08:27;;;;;;;8.00;1.30;;;10.20;99.90;;;;;;6214372;23;20428;-93
2023/02/18 09:10:57;;;;;;;11.18;1.95;;;10.20;99.90;;;;;;6217666;23;20444;-92
2023/02/18 09:13:24;;;;;;;6.18;0.80;;;10.20;99.90;;;;;;6214613;23;20455;-94
2023/02/18 09:16:17;;;;;;;39.85;3.85;;;10.20;99.90;;;;;;6214707;23;20001;-94
2023/02/18 09:18:43;;;;;;;8.63;1.73;;;10.30;99.90;;;;;;6208130;23;20103;-93
2023/02/18 09:21:11;;;;;;;23.90;1.75;;;10.30;99.90;;;;;;6214475;23;20024;-93
2023/02/18 09:23:38;;;;;;;9.50;1.83;;;10.30;99.90;;;;;;6214354;23;20001;-94
2023/02/18 09:26:06;;;;;;;11.60;1.50;;;10.40;99.90;;;;;;6214579;23;20004;-93
2023/02/18 09:28:33;;;;;;;8.68;1.15;;;10.40;99.90;;;;;;6214259;23;20000;-95
2023/02/18 09:31:12;;;;;;;5.32;1.58;;;10.50;99.90;;;;;;6215010;23;20016;-93
2023/02/18 09:33:40;;;;;;;6.85;1.23;;;10.50;99.90;;;;;;6214945;23;20016;-93
2023/02/18 09:36:06;;;;;;;10.55;1.70;;;10.50;99.90;;;;;;6215376;23;20016;-94
2023/02/18 09:38:32;;;;;;;6.22;1.40;;;10.50;99.90;;;;;;6215831;23;20005;-94
2023/02/18 09:41:00;;;;;;;7.40;1.50;;;10.50;99.90;;;;;;6215471;23;20017;-92
2023/02/18 09:43:42;;;;;;;13.55;1.02;;;10.50;99.90;;;;;;6215899;23;20027;-93
2023/02/18 09:46:22;;;;;;;11.75;1.67;;;10.50;99.90;;;;;;6216078;23;20015;-95
2023/02/18 09:48:50;;;;;;;5.90;1.88;;;10.60;99.90;;;;;;6215684;23;20004;-94
2023/02/18 09:51:16;;;;;;;12.65;1.33;;;10.60;99.90;;;;;;6215404;23;20078;-95
2023/02/18 09:53:44;;;;;;;5.60;1.05;;;10.60;99.90;;;;;;6215208;23;20020;-95
2023/02/18 09:56:14;;;;;;;5.53;0.73;;;10.60;99.90;;;;;;6215346;23;20000;-94
2023/02/18 09:58:41;;;;;;;8.55;1.48;;;10.70;99.90;;;;;;6214814;23;20024;-93
2023/02/18 10:01:34;;;;;;;13.88;1.65;;;10.70;99.90;;;;;;6214938;23;19997;-95
2023/02/18 10:04:05;;;;;;;5.43;1.15;;;10.70;99.90;;;;;;6223555;23;20490;-93
2023/02/18 10:06:33;;;;;;;9.65;2.63;;;10.70;99.90;;;;;;6217525;23;20008;-94
2023/02/18 10:09:03;;;;;;;8.30;1.10;;;10.70;99.90;;;;;;6213946;23;20016;-93
2023/02/18 10:11:38;;;;;;;5.38;0.90;;;10.70;99.90;;;;;;6213802;23;20004;-92
2023/02/18 10:14:10;;;;;;;5.57;1.63;;;10.70;99.90;;;;;;6216015;23;20431;-95
2023/02/18 10:16:37;;;;;;;11.68;1.25;;;10.70;99.90;;;;;;6215141;23;20011;-93
2023/02/18 10:19:19;;;;;;;11.15;1.00;;;10.70;99.90;;;;;;6216350;23;20095;-93
2023/02/18 10:21:46;;;;;;;8.90;0.77;;;10.70;99.90;;;;;;6216633;23;20005;-94
2023/02/18 10:24:32;;;;;;;3.28;0.82;;;10.70;99.90;;;;;;6217676;23;20047;-94
2023/02/18 10:26:59;;;;;;;9.52;1.52;;;10.70;99.90;;;;;;6216557;23;20001;-94
2023/02/18 10:29:26;;;;;;;4.85;0.90;;;10.80;99.90;;;;;;6216557;23;20012;-94
2023/02/18 10:32:11;;;;;;;6.22;0.80;;;10.80;99.90;;;;;;6216510;23;20008;-93
2023/02/18 10:34:54;;;;;;;10.88;1.17;;;10.90;99.90;;;;;;6217891;23;20024;-94
2023/02/18 10:37:19;;;;;;;8.60;1.00;;;10.90;99.90;;;;;;6217191;23;20026;-94
2023/02/18 10:40:09;;;;;;;10.82;1.40;;;11.00;99.90;;;;;;6216591;23;20470;-94
2023/02/18 10:42:40;;;;;;;3.63;0.90;;;11.00;99.90;;;;;;6146472;23;20057;-96
2023/02/18 10:45:19;;;;;;;6.22;0.90;;;11.10;99.90;;;;;;6216774;23;20040;-93
2023/02/18 10:48:17;;;;;;;7.13;0.90;;;11.10;99.90;;;;;;6216622;23;20005;-94
2023/02/18 10:50:44;;;;;;;5.18;1.40;;;11.10;99.90;;;;;;6216876;23;20031;-94
2023/02/18 10:53:17;;;;;;;4.70;1.00;;;11.20;99.90;;;;;;6215917;23;20063;-93
2023/02/18 10:55:53;;;;;;;9.93;1.95;;;11.20;99.90;;;;;;6215592;23;20008;-92
2023/02/18 10:58:26;;;;;;;2.40;0.40;;;11.20;99.90;;;;;;6214658;23;20013;-94
2023/02/18 11:00:53;;;;;;;5.25;1.42;;;11.30;99.90;;;;;;6216165;23;20008;-94
2023/02/18 11:03:22;;;;;;;2.75;0.90;;;11.30;99.90;;;;;;6216391;23;20395;-94
2023/02/18 11:05:56;;;;;;;5.03;0.80;;;11.30;99.90;;;;;;6216288;23;20388;-93
2023/02/18 11:08:29;;;;;;;5.32;0.57;;;11.30;99.90;;;;;;6216259;23;20388;-95
2023/02/18 11:10:56;;;;;;;1.30;0.60;;;11.30;99.90;;;;;;6216615;23;20011;-94
2023/02/18 11:13:31;;;;;;;5.47;1.10;;;11.20;99.90;;;;;;6218512;23;20031;-94
2023/02/18 11:16:00;;;;;;;6.22;1.33;;;11.20;99.90;;;;;;6227456;23;19989;-93
2023/02/18 11:18:36;;;;;;;4.95;0.70;;;11.20;99.90;;;;;;6241403;23;20076;-92
2023/02/18 11:21:06;;;;;;;6.55;1.42;;;11.20;99.90;;;;;;6227062;23;20009;-95
2023/02/18 11:23:43;;;;;;;6.97;0.82;;;11.10;99.90;;;;;;6218251;23;20000;-94
2023/02/18 11:26:13;;;;;;;6.60;0.85;;;11.20;99.90;;;;;;6217033;23;20075;-94
2023/02/18 11:28:47;;;;;;;3.63;0.70;;;11.10;99.90;;;;;;6217449;23;20004;-95
2023/02/18 11:31:25;;;;;;;4.28;1.00;;;11.10;99.90;;;;;;6218501;23;20007;-91
2023/02/18 11:33:53;;;;;;;3.78;0.90;;;11.10;99.90;;;;;;6216474;23;20479;-94
2023/02/18 11:36:40;;;;;;;7.05;0.77;;;11.10;99.90;;;;;;6217307;23;20001;-94
2023/02/18 11:39:18;;;;;;;5.45;0.80;;;11.10;99.90;;;;;;6215867;23;20440;-95
2023/02/18 11:42:02;;;;;;;4.15;1.60;;;11.10;99.90;;;;;;6215729;23;20011;-94
2023/02/18 11:44:37;;;;;;;6.18;1.73;;;11.10;99.90;;;;;;6214994;23;20068;-94
2023/02/18 11:47:20;;;;;;;3.40;0.73;;;11.10;99.90;;;;;;6223142;23;20139;-93
2023/02/18 11:50:08;;;;;;;4.40;1.05;;;11.10;99.90;;;;;;6216968;23;20005;-95
2023/02/18 11:52:46;;;;;;;2.83;0.80;;;11.10;99.90;;;;;;6215590;23;20005;-95
2023/02/18 11:55:25;;;;;;;8.18;1.20;;;11.10;99.90;;;;;;6215842;23;20435;-95
2023/02/18 11:57:58;;;;;;;5.28;1.02;;;11.10;99.90;;;;;;6216348;23;20008;-93
2023/02/18 12:00:42;;;;;;;4.05;1.45;;;11.10;99.90;;;;;;6216463;23;20087;-93
2023/02/18 12:03:37;;;;;;;5.35;0.82;;;11.10;99.90;;;;;;6216098;23;20004;-95
2023/02/18 12:06:11;;;;;;;5.25;0.70;;;11.00;99.90;;;;;;6216988;23;20008;-95
2023/02/18 12:08:50;;;;;;;7.80;1.00;;;11.00;99.90;;;;;;6216722;23;20135;-94
2023/02/18 12:11:27;;;;;;;1.75;0.73;;;11.00;99.90;;;;;;6215894;23;20066;-95
2023/02/18 12:13:56;;;;;;;5.07;0.70;;;11.00;99.90;;;;;;6216484;23;20500;-96
2023/02/18 12:16:41;;;;;;;4.13;0.80;;;11.00;99.90;;;;;;6216461;23;20061;-95
2023/02/18 12:19:42;;;;;;;6.68;1.00;;;11.00;99.90;;;;;;6215612;23;20016;-94
2023/02/18 12:22:35;;;;;;;5.88;0.98;;;11.00;99.90;;;;;;6096149;23;20046;-95
2023/02/18 12:25:06;;;;;;;6.18;1.08;;;11.00;99.90;;;;;;6071053;23;20010;-95
2023/02/18 12:28:03;;;;;;;7.20;1.15;;;11.00;99.90;;;;;;6071073;23;20010;-95
2023/02/18 12:30:43;;;;;;;6.82;1.15;;;10.90;99.90;;;;;;6070792;23;20034;-95
2023/02/18 12:33:23;;;;;;;4.30;1.33;;;11.00;99.90;;;;;;6072578;23;19999;-95
2023/02/18 12:36:02;;;;;;;8.13;1.23;;;11.10;99.90;;;;;;6073769;23;20385;-93
2023/02/18 12:38:54;;;;;;;4.50;1.30;;;11.10;99.90;;;;;;6089071;23;20006;-94
2023/02/18 12:41:34;;;;;;;2.60;1.00;;;11.10;99.90;;;;;;6078139;23;20013;-94
2023/02/18 12:44:21;;;;;;;3.78;1.27;;;11.20;99.90;;;;;;6080479;23;20009;-92
2023/02/18 12:47:17;;;;;;;6.57;1.30;;;11.20;99.90;;;;;;6085151;23;20002;-94
2023/02/18 12:49:55;;;;;;;4.65;1.00;;;11.30;99.90;;;;;;6078135;23;20437;-94
2023/02/18 12:52:47;;;;;;;3.50;0.75;;;11.30;99.90;;;;;;6077507;23;20354;-94
2023/02/18 12:55:47;;;;;;;3.67;0.82;;;11.30;99.90;;;;;;6094454;23;20080;-95
2023/02/18 12:58:24;;;;;;;7.18;1.40;;;11.30;99.90;;;;;;6180809;23;20024;-95
2023/02/18 13:01:15;;;;;;;5.68;1.02;;;11.30;99.90;;;;;;6219449;23;20016;-95
2023/02/18 13:04:02;;;;;;;4.80;1.10;;;11.30;99.90;;;;;;6220000;23;20027;-94
2023/02/18 13:06:28;;;;;;;2.90;0.68;;;11.30;99.90;;;;;;6221094;23;19996;-95
2023/02/18 13:08:56;;;;;;;9.32;1.50;;;11.20;99.90;;;;;;6217845;23;20432;-95
2023/02/18 13:11:34;;;;;;;6.88;1.10;;;11.20;99.90;;;;;;6218804;23;20032;-95